Unidilla, Georgia
Current Conditions -  °F | °C
As of 9:15 PM on Thursday 20 Nov 2014 (Local Time) from KPXE Reporting Station
Clear Clear  
Wind Chill: 53°   Ceiling: Unl
Heat Index: 53°   Visibility: 10mi
Dew Point: 41°   Wind: 0mph
Humidity: 64%   Direction: NA
Pressure: 30.26"   Gusts: NA
Location:  32.2533°N, 83.7537°W
Report Text: KPXE 210215Z AUTO 00000KT 10SM CLR 11/05 A3026 RMK AO2 T01140048
Loading
Personal Weather Stations






























Interactive Weather Map New forecast layout! Learn more

10-Day Weather Forecast

Advertisements
Track Severe Weather on mobile